Time;durP1;ratioP1;P1;durP2;ratioP2;P2;SDS_P1;SDS_P2;PMS_P1;PMS_P2;Temp;Humidity;BMP_temperature;BMP_pressure;BME280_temperature;BME280_humidity;BME280_pressure;Samples;Min_cycle;Max_cycle;Signal;HPM_P1;HPM_P2
2023/02/23 00:01:56;;;;;;;25.63;13.68;;;9.90;99.90;;;;;;5071332;28;20056;-72
2023/02/23 00:04:22;;;;;;;;;;;9.90;99.90;;;;;;5071590;28;20036;-72
2023/02/23 00:06:50;;;;;;;23.83;12.38;;;10.00;99.90;;;;;;5070870;28;19912;-72
2023/02/23 00:09:33;;;;;;;29.65;14.38;;;10.00;99.90;;;;;;5070175;28;20025;-71
2023/02/23 00:12:02;;;;;;;27.80;14.10;;;10.00;99.90;;;;;;5070604;28;20374;-71
2023/02/23 00:14:29;;;;;;;25.95;13.48;;;9.90;99.90;;;;;;5070865;28;20352;-72
2023/02/23 00:16:56;;;;;;;32.25;13.90;;;9.80;99.90;;;;;;5070563;28;20019;-71
2023/02/23 00:19:23;;;;;;;23.88;12.63;;;9.80;99.90;;;;;;5070993;28;20439;-73
2023/02/23 00:21:49;;;;;;;24.67;13.00;;;9.90;99.90;;;;;;5070688;28;20102;-71
2023/02/23 00:24:18;;;;;;;29.27;13.65;;;9.90;99.90;;;;;;5070591;28;20102;-71
2023/02/23 00:26:46;;;;;;;20.77;12.05;;;9.90;99.90;;;;;;5070593;28;20101;-72
2023/02/23 00:29:16;;;;;;;;;;;9.90;99.90;;;;;;5069836;28;20414;-72
2023/02/23 00:31:45;;;;;;;21.88;12.10;;;10.00;99.90;;;;;;5070910;28;20313;-73
2023/02/23 00:34:13;;;;;;;23.27;13.20;;;10.10;99.90;;;;;;5070574;28;20040;-72
2023/02/23 00:36:40;;;;;;;23.98;13.82;;;10.00;99.90;;;;;;5070710;28;20071;-72
2023/02/23 00:39:27;;;;;;;23.92;12.88;;;10.00;99.90;;;;;;5070482;28;20037;-71
2023/02/23 00:41:54;;;;;;;26.20;14.15;;;10.00;99.90;;;;;;5070588;28;20040;-72
2023/02/23 00:44:22;;;;;;;26.15;13.45;;;9.90;99.90;;;;;;5070157;28;20043;-73
2023/02/23 00:46:50;;;;;;;;;;;9.90;99.90;;;;;;5070672;28;20056;-72
2023/02/23 00:49:17;;;;;;;30.55;13.38;;;9.90;99.90;;;;;;5069338;28;19919;-72
2023/02/23 00:51:43;;;;;;;22.75;12.07;;;9.80;99.90;;;;;;5070482;28;20067;-73
2023/02/23 00:54:12;;;;;;;25.10;12.25;;;9.80;99.90;;;;;;5070552;28;20061;-73
2023/02/23 00:56:38;;;;;;;25.50;13.60;;;9.70;99.90;;;;;;5070260;28;20040;-73
2023/02/23 00:59:04;;;;;;;21.30;12.02;;;9.90;99.90;;;;;;5069219;28;20024;-72
2023/02/23 01:01:30;;;;;;;21.27;11.88;;;9.80;99.90;;;;;;5070683;28;20047;-70
2023/02/23 01:03:56;;;;;;;22.70;12.93;;;9.80;99.90;;;;;;5070255;28;20040;-72
2023/02/23 01:06:22;;;;;;;25.42;13.00;;;9.80;99.90;;;;;;5069055;28;20218;-71
2023/02/23 01:08:49;;;;;;;20.77;12.55;;;9.80;99.90;;;;;;5069935;28;20068;-72
2023/02/23 01:11:21;;;;;;;24.52;12.73;;;9.80;99.90;;;;;;5069998;28;20424;-72
2023/02/23 01:13:48;;;;;;;24.70;12.43;;;9.80;99.90;;;;;;5070606;28;20098;-72
2023/02/23 01:16:17;;;;;;;23.75;13.00;;;9.80;99.90;;;;;;5070048;28;20487;-73
2023/02/23 01:18:44;;;;;;;22.83;11.82;;;9.80;99.90;;;;;;5070174;28;20107;-72
2023/02/23 01:21:19;;;;;;;24.17;12.57;;;9.80;99.90;;;;;;5073577;28;20051;-72
2023/02/23 01:23:45;;;;;;;21.83;11.85;;;9.80;99.90;;;;;;5073683;28;20028;-71
2023/02/23 01:26:15;;;;;;;23.73;13.05;;;9.80;99.90;;;;;;5073809;28;20366;-71
2023/02/23 01:28:41;;;;;;;24.98;12.40;;;9.70;99.90;;;;;;5073858;28;20048;-72
2023/02/23 01:31:10;;;;;;;25.20;13.07;;;9.70;99.90;;;;;;5073550;28;20024;-71
2023/02/23 01:33:35;;;;;;;23.73;11.93;;;9.80;99.90;;;;;;5073572;28;20036;-72
2023/02/23 01:36:01;;;;;;;27.48;12.30;;;9.80;99.90;;;;;;5073533;28;20101;-72
2023/02/23 01:38:27;;;;;;;29.10;13.68;;;9.70;99.90;;;;;;5072334;28;20037;-72
2023/02/23 01:40:52;;;;;;;26.02;13.75;;;9.80;99.90;;;;;;5074229;28;20027;-72
2023/02/23 01:43:24;;;;;;;28.67;14.13;;;9.90;99.90;;;;;;5073566;28;20024;-71
2023/02/23 01:45:54;;;;;;;23.40;13.93;;;10.00;99.90;;;;;;5072376;28;20416;-72
2023/02/23 01:48:28;;;;;;;29.38;15.25;;;10.00;99.90;;;;;;5073391;28;20033;-71
2023/02/23 01:51:02;;;;;;;28.38;15.00;;;10.20;99.90;;;;;;5073545;28;20036;-71
2023/02/23 01:53:32;;;;;;;28.33;15.23;;;10.30;99.90;;;;;;5073597;28;20047;-71
2023/02/23 01:56:04;;;;;;;30.15;15.55;;;10.20;99.90;;;;;;5073278;28;20037;-71
2023/02/23 01:58:32;;;;;;;26.58;14.35;;;10.30;99.90;;;;;;5074019;28;20020;-71
2023/02/23 02:01:02;;;;;;;32.67;15.75;;;10.40;99.90;;;;;;5072186;28;20032;-71
2023/02/23 02:03:54;;;;;;;27.85;15.77;;;10.50;99.90;;;;;;5073287;28;20107;-71
2023/02/23 02:06:22;;;;;;;30.17;16.23;;;10.50;99.90;;;;;;5073022;28;20032;-71
2023/02/23 02:08:53;;;;;;;30.52;16.63;;;10.60;99.90;;;;;;5072932;28;20032;-71
2023/02/23 02:11:28;;;;;;;32.58;17.48;;;10.60;99.90;;;;;;5072015;28;20393;-72
2023/02/23 02:14:17;;;;;;;35.78;18.10;;;10.60;99.90;;;;;;5073412;28;20067;-72
2023/02/23 02:16:49;;;;;;;38.13;19.55;;;10.60;99.90;;;;;;5072049;28;20040;-71
2023/02/23 02:19:24;;;;;;;41.53;19.52;;;10.60;99.90;;;;;;5071814;28;20052;-71
2023/02/23 02:22:24;;;;;;;39.30;19.88;;;10.70;99.90;;;;;;5072781;28;20078;-72
2023/02/23 02:25:32;;;;;;;40.22;20.42;;;10.70;99.90;;;;;;5072725;28;20058;-72
2023/02/23 02:28:22;;;;;;;39.63;19.90;;;10.70;99.90;;;;;;5072811;28;20037;-71
2023/02/23 02:31:06;;;;;;;40.95;20.58;;;10.80;99.90;;;;;;5031190;28;20182;-72
2023/02/23 02:33:42;;;;;;;37.75;20.67;;;10.80;99.90;;;;;;5032672;28;20029;-72
2023/02/23 02:36:26;;;;;;;49.22;22.88;;;10.80;99.90;;;;;;5021625;28;20030;-72
2023/02/23 02:40:15;;;;;;;43.70;22.55;;;10.80;99.90;;;;;;5012857;28;20022;-71
2023/02/23 02:42:57;;;;;;;51.53;23.83;;;10.70;99.90;;;;;;4917025;29;20556;-72
2023/02/23 02:46:00;;;;;;;48.60;23.25;;;10.70;99.90;;;;;;4932872;29;20048;-72
2023/02/23 02:48:41;;;;;;;51.92;25.13;;;10.70;99.90;;;;;;5004147;28;20034;-72
2023/02/23 02:51:33;;;;;;;44.92;23.67;;;10.70;99.90;;;;;;5011526;28;20121;-72
2023/02/23 02:54:05;;;;;;;49.92;25.13;;;10.70;99.90;;;;;;5012503;28;20054;-71
2023/02/23 02:56:39;;;;;;;44.13;23.02;;;10.80;99.90;;;;;;5012598;28;20033;-72
2023/02/23 04:17:42;;;;;;;68.65;32.25;;;11.00;99.90;;;;;;5050702;28;20033;-71
2023/02/23 04:20:11;;;;;;;69.10;34.05;;;11.00;99.90;;;;;;5049585;28;20037;-72
2023/02/23 04:22:37;;;;;;;64.07;33.30;;;11.00;99.90;;;;;;5051213;28;20411;-72
2023/02/23 04:25:04;;;;;;;63.22;32.75;;;11.10;99.90;;;;;;5050848;28;20463;-72
2023/02/23 04:27:30;;;;;;;66.85;33.00;;;11.00;99.90;;;;;;5050748;28;20025;-72
2023/02/23 04:29:56;;;;;;;65.97;33.67;;;11.00;99.90;;;;;;5050446;28;20033;-72
2023/02/23 04:32:22;;;;;;;63.95;33.50;;;11.10;99.90;;;;;;5050586;28;20033;-71
2023/02/23 04:34:48;;;;;;;67.20;33.85;;;11.10;99.90;;;;;;5051192;28;20028;-73
2023/02/23 04:37:14;;;;;;;67.70;33.45;;;11.20;99.90;;;;;;5050752;28;20459;-71
2023/02/23 04:39:41;;;;;;;64.63;33.78;;;11.00;99.90;;;;;;5049583;28;20048;-73
2023/02/23 04:42:08;;;;;;;67.07;33.27;;;11.00;99.90;;;;;;5050836;28;20037;-72
2023/02/23 04:44:34;;;;;;;64.43;33.47;;;11.20;99.90;;;;;;5050562;28;20297;-72
2023/02/23 04:47:00;;;;;;;63.53;32.60;;;11.10;99.90;;;;;;5050629;28;20467;-72
2023/02/23 04:49:26;;;;;;;63.55;32.90;;;11.20;99.90;;;;;;5051363;28;20029;-72
2023/02/23 04:51:51;;;;;;;63.17;33.20;;;11.20;99.90;;;;;;5050775;28;20044;-72
2023/02/23 04:54:17;;;;;;;60.30;32.30;;;11.20;99.90;;;;;;5051363;28;20371;-73
2023/02/23 04:56:43;;;;;;;58.03;30.88;;;11.10;99.90;;;;;;5053453;28;20440;-71
2023/02/23 04:59:08;;;;;;;61.42;31.60;;;11.10;99.90;;;;;;5053438;28;20029;-72
2023/02/23 05:01:35;;;;;;;58.70;30.13;;;11.10;99.90;;;;;;5053526;28;20033;-72
2023/02/23 05:04:01;;;;;;;59.05;31.05;;;11.10;99.90;;;;;;5054504;28;20033;-72
2023/02/23 05:06:27;;;;;;;61.72;30.08;;;11.10;99.90;;;;;;5054136;28;20455;-71
2023/02/23 05:08:53;;;;;;;62.17;32.03;;;11.10;99.90;;;;;;5054210;28;20033;-72
2023/02/23 05:11:18;;;;;;;61.60;31.77;;;11.10;99.90;;;;;;5054112;28;20428;-72
2023/02/23 05:13:44;;;;;;;66.50;32.13;;;11.10;99.90;;;;;;5054463;28;20482;-71
2023/02/23 05:16:10;;;;;;;67.28;31.65;;;11.10;99.90;;;;;;5053965;28;20506;-72
2023/02/23 05:18:35;;;;;;;62.00;31.13;;;11.10;99.90;;;;;;5052776;28;20485;-71
2023/02/23 05:21:05;;;;;;;64.00;31.27;;;11.10;99.90;;;;;;5054029;28;20525;-71
2023/02/23 05:23:33;;;;;;;62.47;31.55;;;11.20;99.90;;;;;;5052826;28;20120;-72
2023/02/23 05:26:01;;;;;;;64.70;31.50;;;11.20;99.90;;;;;;5053821;28;20494;-72
2023/02/23 05:28:26;;;;;;;65.70;31.42;;;11.20;99.90;;;;;;5054109;28;20350;-73
2023/02/23 05:30:52;;;;;;;68.13;33.08;;;11.20;99.90;;;;;;5053879;28;20121;-73
2023/02/23 05:33:18;;;;;;;68.43;32.00;;;11.20;99.90;;;;;;5053573;28;20028;-71
2023/02/23 05:35:44;;;;;;;67.20;33.10;;;11.20;99.90;;;;;;5053507;28;20033;-72
2023/02/23 05:38:09;;;;;;;64.75;33.33;;;11.30;99.90;;;;;;5053967;28;20027;-72
2023/02/23 05:40:35;;;;;;;63.80;33.65;;;11.30;99.90;;;;;;5054479;28;20021;-72
2023/02/23 05:43:02;;;;;;;64.32;33.35;;;11.30;99.90;;;;;;5053780;28;20467;-73
2023/02/23 05:45:27;;;;;;;79.55;35.10;;;11.40;99.90;;;;;;5053625;28;20041;-72
2023/02/23 05:47:53;;;;;;;67.40;33.38;;;11.40;99.90;;;;;;5053627;28;20493;-72
2023/02/23 05:50:19;;;;;;;76.32;35.28;;;11.30;99.90;;;;;;5053576;28;20045;-72
2023/02/23 05:52:45;;;;;;;74.60;33.85;;;11.30;99.90;;;;;;5054151;28;20016;-71
2023/02/23 05:55:10;;;;;;;73.63;34.10;;;11.50;99.90;;;;;;5052722;28;20084;-72
2023/02/23 05:57:37;;;;;;;73.93;34.83;;;11.30;99.90;;;;;;5053624;28;20025;-71
2023/02/23 06:00:05;;;;;;;64.78;33.03;;;11.30;99.90;;;;;;5053375;28;20228;-71
2023/02/23 06:02:31;;;;;;;65.07;32.60;;;11.20;99.90;;;;;;5053122;28;20057;-71
2023/02/23 06:04:56;;;;;;;62.75;33.08;;;11.30;99.90;;;;;;5053190;28;20100;-71
2023/02/23 06:07:22;;;;;;;76.60;35.97;;;11.30;99.90;;;;;;5052656;28;20380;-71
2023/02/23 06:09:48;;;;;;;73.15;33.33;;;11.30;99.90;;;;;;5053242;28;20087;-71
2023/02/23 06:12:13;;;;;;;74.03;33.80;;;11.30;99.90;;;;;;5053292;28;20037;-72
2023/02/23 06:14:39;;;;;;;72.20;35.75;;;11.20;99.90;;;;;;5051858;28;20044;-71
2023/02/23 06:17:05;;;;;;;71.68;33.60;;;11.10;99.90;;;;;;5053362;28;20025;-70
2023/02/23 06:19:31;;;;;;;78.75;37.20;;;11.20;99.90;;;;;;5053748;28;20021;-72
2023/02/23 06:21:57;;;;;;;68.55;33.65;;;11.20;99.90;;;;;;5053222;28;20059;-73
2023/02/23 06:24:23;;;;;;;83.82;37.83;;;11.30;99.90;;;;;;5053033;28;20033;-72
2023/02/23 06:26:49;;;;;;;76.97;35.72;;;11.20;99.90;;;;;;5053246;28;20033;-70
2023/02/23 06:29:15;;;;;;;76.18;35.13;;;11.30;99.90;;;;;;5061000;28;20056;-71
2023/02/23 06:31:42;;;;;;;81.80;37.60;;;11.40;99.90;;;;;;5073735;28;20021;-71
2023/02/23 06:34:09;;;;;;;70.63;33.05;;;11.20;99.90;;;;;;5073376;28;20086;-72
2023/02/23 06:36:35;;;;;;;74.68;35.35;;;11.30;99.90;;;;;;5072896;28;20524;-70
2023/02/23 06:39:02;;;;;;;83.30;36.03;;;11.40;99.90;;;;;;5072670;28;20041;-71
2023/02/23 06:41:28;;;;;;;77.82;35.58;;;11.40;99.90;;;;;;5072729;28;20350;-71
2023/02/23 06:43:54;;;;;;;82.38;35.88;;;11.40;99.90;;;;;;5073093;28;20036;-70
2023/02/23 06:46:20;;;;;;;75.20;34.58;;;11.40;99.90;;;;;;5072936;28;20079;-73
2023/02/23 06:48:46;;;;;;;76.10;35.55;;;11.60;99.90;;;;;;5072563;28;20028;-71
2023/02/23 06:51:12;;;;;;;80.75;36.30;;;11.50;99.90;;;;;;5072479;28;20078;-71
2023/02/23 06:53:37;;;;;;;76.05;36.28;;;11.50;99.90;;;;;;5071435;28;20174;-70
2023/02/23 06:56:03;;;;;;;76.95;35.15;;;11.50;99.90;;;;;;5072274;28;20024;-71
2023/02/23 06:58:29;;;;;;;79.75;36.08;;;11.40;99.90;;;;;;5072783;28;20024;-71
2023/02/23 07:00:57;;;;;;;78.43;35.38;;;11.40;99.90;;;;;;5071974;28;20387;-71
2023/02/23 07:03:24;;;;;;;69.75;34.33;;;11.40;99.90;;;;;;5072354;28;20365;-70
2023/02/23 07:05:49;;;;;;;76.88;36.53;;;11.40;99.90;;;;;;5071906;28;20430;-70
2023/02/23 07:08:17;;;;;;;75.20;35.90;;;11.50;99.90;;;;;;5072586;28;20047;-70
2023/02/23 07:10:43;;;;;;;68.93;35.13;;;11.50;99.90;;;;;;5072433;28;20029;-70
2023/02/23 07:13:09;;;;;;;75.63;35.08;;;11.50;99.90;;;;;;5072223;28;20360;-71
2023/02/23 07:15:35;;;;;;;73.70;37.30;;;11.50;99.90;;;;;;5071956;28;20044;-72
2023/02/23 07:18:01;;;;;;;70.18;33.92;;;11.50;99.90;;;;;;5071601;28;20213;-71
2023/02/23 07:20:27;;;;;;;82.47;35.97;;;11.50;99.90;;;;;;5071905;28;20412;-70
2023/02/23 07:22:53;;;;;;;77.60;35.72;;;11.50;99.90;;;;;;5072092;28;20025;-70
2023/02/23 07:25:20;;;;;;;79.28;35.83;;;11.50;99.90;;;;;;5071849;28;20463;-70
2023/02/23 07:27:46;;;;;;;80.00;36.50;;;11.60;99.90;;;;;;5071865;28;20032;-69
2023/02/23 07:30:12;;;;;;;78.53;35.15;;;11.50;99.90;;;;;;5070514;28;20044;-70
2023/02/23 07:32:38;;;;;;;86.70;39.90;;;11.40;99.90;;;;;;5071399;28;20112;-70
2023/02/23 07:35:05;;;;;;;83.38;38.97;;;11.50;99.90;;;;;;5070283;28;20128;-70
2023/02/23 07:37:31;;;;;;;81.07;36.70;;;11.40;99.90;;;;;;5070790;28;20082;-70
2023/02/23 07:39:57;;;;;;;76.57;36.85;;;11.50;99.90;;;;;;5071941;28;20315;-71
2023/02/23 07:42:23;;;;;;;77.43;36.60;;;11.50;99.90;;;;;;5071702;28;20052;-70
2023/02/23 07:44:49;;;;;;;79.38;36.67;;;11.50;99.90;;;;;;5071470;28;20390;-71
2023/02/23 07:47:14;;;;;;;81.13;36.97;;;11.40;99.90;;;;;;5070259;28;20457;-70
2023/02/23 07:49:40;;;;;;;78.50;36.28;;;11.50;99.90;;;;;;5072104;28;20235;-71
2023/02/23 07:52:06;;;;;;;81.70;36.67;;;11.40;99.90;;;;;;5070079;28;20036;-71
2023/02/23 07:54:32;;;;;;;71.40;35.90;;;11.20;99.90;;;;;;5071191;28;20163;-70
2023/02/23 07:56:58;;;;;;;78.65;36.38;;;11.20;99.90;;;;;;5071399;28;20107;-72
2023/02/23 07:59:24;;;;;;;76.07;36.20;;;11.30;99.90;;;;;;5071526;28;20039;-71
2023/02/23 08:01:51;;;;;;;72.68;35.78;;;11.20;99.90;;;;;;5070518;28;20032;-71
2023/02/23 08:04:17;;;;;;;71.15;35.90;;;11.40;99.90;;;;;;5070145;28;20037;-72
2023/02/23 08:06:43;;;;;;;74.78;36.85;;;11.50;99.90;;;;;;5070973;28;20046;-70
2023/02/23 08:09:10;;;;;;;78.85;36.15;;;11.40;99.90;;;;;;5069956;28;20043;-71
2023/02/23 08:11:36;;;;;;;70.95;36.05;;;11.40;99.90;;;;;;5071028;28;20037;-71
2023/02/23 08:14:01;;;;;;;73.68;35.80;;;11.40;99.90;;;;;;5070726;28;20466;-71
2023/02/23 08:16:32;;;;;;;74.45;34.58;;;11.40;99.90;;;;;;5071121;28;20059;-71
2023/02/23 08:18:59;;;;;;;71.78;33.97;;;11.50;99.90;;;;;;5070845;28;20029;-70
2023/02/23 08:21:27;;;;;;;66.60;32.80;;;11.50;99.90;;;;;;5070073;28;20225;-70
2023/02/23 08:23:54;;;;;;;67.22;33.40;;;11.30;99.90;;;;;;5071027;28;20033;-71
2023/02/23 08:26:20;;;;;;;70.15;35.00;;;11.10;99.90;;;;;;5070826;28;20040;-70
2023/02/23 08:28:46;;;;;;;69.97;33.10;;;11.20;99.90;;;;;;5070063;28;20036;-70
2023/02/23 08:31:13;;;;;;;70.32;33.47;;;11.20;99.90;;;;;;5070270;28;20039;-71
2023/02/23 08:33:39;;;;;;;67.63;32.60;;;11.20;99.90;;;;;;5069458;28;20043;-71
2023/02/23 08:36:08;;;;;;;61.85;31.02;;;11.20;99.90;;;;;;5070906;28;20067;-71
2023/02/23 08:38:36;;;;;;;70.13;34.10;;;11.20;99.90;;;;;;5070370;28;20112;-71
2023/02/23 08:41:03;;;;;;;65.72;32.20;;;11.20;99.90;;;;;;5070766;28;20100;-72
2023/02/23 08:43:29;;;;;;;65.63;33.55;;;11.30;99.90;;;;;;5071642;28;20511;-71
2023/02/23 08:45:55;;;;;;;63.72;31.75;;;11.50;99.90;;;;;;5071483;28;20139;-72
2023/02/23 08:48:21;;;;;;;62.75;32.03;;;11.40;99.90;;;;;;5070555;28;20029;-70
2023/02/23 08:50:48;;;;;;;69.40;34.33;;;11.50;99.90;;;;;;5069608;28;20125;-71
2023/02/23 08:53:15;;;;;;;70.68;33.67;;;11.40;99.90;;;;;;5069826;28;20028;-71
2023/02/23 08:55:40;;;;;;;71.65;34.85;;;11.40;99.90;;;;;;5071451;28;20013;-71
2023/02/23 08:58:09;;;;;;;70.68;34.47;;;11.40;99.90;;;;;;5070369;28;20505;-71
2023/02/23 09:00:36;;;;;;;72.15;35.08;;;11.40;99.90;;;;;;5070498;28;20029;-71
2023/02/23 09:03:04;;;;;;;66.13;33.90;;;11.40;99.90;;;;;;5070975;28;20048;-71
2023/02/23 09:05:30;;;;;;;71.17;33.70;;;11.30;99.90;;;;;;5071192;28;20077;-71
2023/02/23 09:07:56;;;;;;;75.15;35.55;;;11.20;99.90;;;;;;5070291;28;20254;-70
2023/02/23 09:10:24;;;;;;;76.25;35.92;;;11.10;99.90;;;;;;5070437;28;20108;-71
2023/02/23 09:12:50;;;;;;;85.18;37.50;;;11.20;99.90;;;;;;5069154;28;20040;-70
2023/02/23 09:15:16;;;;;;;76.90;36.10;;;11.30;99.90;;;;;;5070170;28;20032;-70
2023/02/23 09:17:43;;;;;;;77.15;34.58;;;11.30;99.90;;;;;;5069967;28;20033;-70
2023/02/23 09:20:12;;;;;;;74.40;36.05;;;11.30;99.90;;;;;;5070148;28;20443;-71
2023/02/23 09:22:48;;;;;;;69.45;34.97;;;11.30;99.90;;;;;;5070465;28;20067;-71
2023/02/23 09:25:21;;;;;;;76.68;35.15;;;11.20;99.90;;;;;;5070400;28;20037;-70
2023/02/23 09:27:48;;;;;;;80.78;37.88;;;11.30;99.90;;;;;;5070267;28;20037;-70
2023/02/23 09:30:16;;;;;;;68.68;34.45;;;11.30;99.90;;;;;;5068515;28;20466;-71
2023/02/23 09:32:49;;;;;;;74.90;35.95;;;11.20;99.90;;;;;;5069968;28;20071;-71
2023/02/23 09:35:16;;;;;;;72.55;35.00;;;11.30;99.90;;;;;;5070226;28;20470;-70
2023/02/23 09:37:51;;;;;;;76.30;35.90;;;11.30;99.90;;;;;;5070631;28;20059;-71
2023/02/23 09:40:23;;;;;;;75.40;38.03;;;11.50;99.90;;;;;;5070669;28;20032;-71
2023/02/23 09:43:11;;;;;;;79.22;36.95;;;11.40;99.90;;;;;;5072654;28;20110;-71
2023/02/23 09:45:36;;;;;;;74.20;35.78;;;11.40;99.90;;;;;;5073384;28;20123;-71
2023/02/23 09:48:24;;;;;;;72.03;34.15;;;11.60;99.90;;;;;;5074021;28;20120;-71
2023/02/23 09:50:55;;;;;;;69.72;33.75;;;11.50;99.90;;;;;;5073616;28;20051;-71
2023/02/23 09:53:36;;;;;;;71.78;36.13;;;11.40;99.90;;;;;;5073510;28;20343;-70
2023/02/23 09:56:17;;;;;;;70.95;34.05;;;11.30;99.90;;;;;;5072387;28;20039;-72
2023/02/23 09:58:43;;;;;;;68.95;33.65;;;11.40;99.90;;;;;;5073666;28;20025;-71
2023/02/23 10:01:48;;;;;;;66.32;31.83;;;11.50;99.90;;;;;;5073252;28;20068;-71
2023/02/23 10:04:22;;;;;;;74.65;32.63;;;11.40;99.90;;;;;;5073350;28;20078;-71
2023/02/23 10:06:57;;;;;;;63.10;31.13;;;11.50;99.90;;;;;;5073110;28;20066;-71
2023/02/23 10:09:46;;;;;;;67.63;32.30;;;11.40;99.90;;;;;;5073041;28;20509;-71
2023/02/23 10:12:21;;;;;;;68.90;32.03;;;11.40;99.90;;;;;;5072950;28;20485;-71
2023/02/23 10:15:07;;;;;;;63.65;31.13;;;11.50;99.90;;;;;;5072999;28;20082;-74
2023/02/23 10:17:47;;;;;;;66.25;30.85;;;11.50;99.90;;;;;;5072914;28;20052;-71
2023/02/23 10:20:26;;;;;;;62.97;30.50;;;11.50;99.90;;;;;;5072975;28;20013;-70
2023/02/23 10:22:55;;;;;;;62.75;29.98;;;11.50;99.90;;;;;;5073400;28;20234;-72
2023/02/23 10:25:25;;;;;;;65.60;30.13;;;11.40;99.90;;;;;;5073010;28;20040;-71
2023/02/23 10:27:54;;;;;;;61.50;29.13;;;11.50;99.90;;;;;;5072753;28;20097;-71
2023/02/23 10:30:27;;;;;;;64.03;30.23;;;11.60;99.90;;;;;;5071305;28;20478;-70
2023/02/23 10:33:10;;;;;;;56.72;27.73;;;11.50;99.90;;;;;;5072785;28;20040;-71
2023/02/23 10:35:37;;;;;;;54.95;26.67;;;11.20;99.90;;;;;;5072542;28;20045;-72
2023/02/23 10:38:02;;;;;;;57.85;26.73;;;11.30;99.90;;;;;;5072431;28;20261;-71
2023/02/23 10:40:32;;;;;;;59.15;26.75;;;11.20;99.90;;;;;;5073083;28;20766;-70
2023/02/23 10:43:00;;;;;;;51.80;25.40;;;11.20;99.90;;;;;;5072686;28;20048;-71
2023/02/23 10:45:27;;;;;;;;;;;11.30;99.90;;;;;;5072909;28;20343;-73
2023/02/23 10:48:18;;;;;;;56.63;25.47;;;11.20;99.90;;;;;;5072284;28;20265;-70
2023/02/23 10:50:47;;;;;;;46.70;23.65;;;11.30;99.90;;;;;;5061023;28;20402;-72
2023/02/23 10:53:19;;;;;;;48.15;23.98;;;11.40;99.90;;;;;;5071572;28;20032;-71
2023/02/23 10:55:58;;;;;;;48.30;24.60;;;11.30;99.90;;;;;;5072601;28;20016;-70
2023/02/23 10:58:24;;;;;;;47.95;23.33;;;11.40;99.90;;;;;;5071193;28;20458;-71
2023/02/23 11:00:58;;;;;;;45.42;23.10;;;11.30;99.90;;;;;;5072037;28;20060;-71
2023/02/23 11:03:51;;;;;;;44.08;23.23;;;11.30;99.90;;;;;;5071824;28;20405;-71
2023/02/23 11:06:28;;;;;;;47.70;22.95;;;11.30;99.90;;;;;;5071547;28;20119;-70
2023/02/23 11:08:54;;;;;;;51.53;23.70;;;11.40;99.90;;;;;;5070379;28;20043;-70
2023/02/23 11:11:27;;;;;;;47.63;23.60;;;11.70;99.90;;;;;;5071454;28;20413;-71
2023/02/23 11:13:56;;;;;;;44.90;21.65;;;11.60;99.90;;;;;;5071151;28;20075;-72
2023/02/23 11:16:37;;;;;;;44.20;22.48;;;11.60;99.90;;;;;;5071826;28;20036;-71
2023/02/23 11:19:11;;;;;;;44.28;22.02;;;11.50;99.90;;;;;;5071687;28;20029;-71
2023/02/23 11:21:38;;;;;;;46.92;23.20;;;11.70;99.90;;;;;;5071573;28;20080;-72
2023/02/23 11:24:17;;;;;;;38.75;20.88;;;11.60;99.90;;;;;;5070384;28;20040;-71
2023/02/23 11:26:44;;;;;;;47.30;23.35;;;11.60;99.90;;;;;;5071748;28;20033;-70
2023/02/23 11:29:25;;;;;;;38.72;20.40;;;11.60;99.90;;;;;;5071466;28;20475;-71
2023/02/23 11:31:55;;;;;;;40.28;18.73;;;11.60;99.90;;;;;;5071050;28;20028;-71
2023/02/23 11:34:34;;;;;;;36.97;19.77;;;11.40;99.90;;;;;;5071546;28;20190;-72
2023/02/23 11:37:23;;;;;;;33.97;19.08;;;11.50;99.90;;;;;;5071472;28;20067;-71
2023/02/23 11:39:56;;;;;;;38.10;19.70;;;11.40;99.90;;;;;;5060493;28;20032;-71
2023/02/23 11:42:27;;;;;;;35.40;19.13;;;11.50;99.90;;;;;;5070051;28;20039;-71
2023/02/23 11:45:16;;;;;;;37.80;18.98;;;11.50;99.90;;;;;;5071256;28;20028;-71
2023/02/23 11:47:48;;;;;;;35.22;18.80;;;11.50;99.90;;;;;;5071454;28;20067;-75
2023/02/23 11:50:31;;;;;;;31.75;17.60;;;11.70;99.90;;;;;;5071192;28;20064;-74
2023/02/23 11:53:03;;;;;;;34.35;16.42;;;11.60;99.90;;;;;;5071056;28;20411;-74
2023/02/23 11:55:31;;;;;;;30.27;16.55;;;11.70;99.90;;;;;;5070746;28;20032;-74
2023/02/23 11:58:28;;;;;;;32.00;17.10;;;11.60;99.90;;;;;;5071259;28;20071;-71
2023/02/23 12:01:11;;;;;;;28.55;15.77;;;11.40;99.90;;;;;;5070253;28;20410;-71
2023/02/23 12:03:46;;;;;;;32.90;16.80;;;11.70;99.90;;;;;;5070839;28;20040;-71
2023/02/23 12:06:29;;;;;;;33.38;17.42;;;11.80;99.90;;;;;;5070895;28;20374;-71
2023/02/23 12:09:11;;;;;;;31.20;17.83;;;11.70;99.90;;;;;;5070736;28;20025;-70
2023/02/23 12:11:43;;;;;;;34.45;18.42;;;11.70;99.90;;;;;;5070923;28;20056;-70
2023/02/23 12:14:25;;;;;;;32.90;18.20;;;11.70;99.90;;;;;;5070674;28;20365;-72
2023/02/23 12:16:58;;;;;;;43.33;19.38;;;11.70;99.90;;;;;;5070078;28;20466;-71
2023/02/23 12:19:48;;;;;;;35.95;18.58;;;11.70;99.90;;;;;;5070750;28;20159;-71
2023/02/23 12:22:20;;;;;;;35.25;18.55;;;11.70;99.90;;;;;;5070718;28;20314;-71
2023/02/23 12:25:19;;;;;;;36.50;18.88;;;11.70;99.90;;;;;;5070762;28;20032;-71
2023/02/23 12:28:05;;;;;;;35.22;18.25;;;11.90;99.90;;;;;;5070654;28;20032;-70
2023/02/23 12:30:34;;;;;;;36.90;19.02;;;11.90;99.90;;;;;;5070304;28;20041;-71
2023/02/23 12:33:07;;;;;;;40.00;20.67;;;12.00;99.90;;;;;;5070655;28;20024;-70
2023/02/23 12:35:48;;;;;;;34.13;17.85;;;11.90;99.90;;;;;;5070609;28;20024;-70
2023/02/23 12:38:56;;;;;;;36.30;18.70;;;11.80;99.90;;;;;;5070478;28;20497;-70
2023/02/23 12:41:46;;;;;;;42.38;21.15;;;11.90;99.90;;;;;;5070415;28;20470;-70
2023/02/23 12:44:41;;;;;;;43.55;20.70;;;11.70;99.90;;;;;;5070464;28;20292;-70
2023/02/23 12:47:32;;;;;;;45.60;21.45;;;11.80;99.90;;;;;;5070478;28;20115;-71
2023/02/23 12:50:12;;;;;;;46.85;21.60;;;12.00;99.90;;;;;;5070494;28;20032;-70
2023/02/23 12:52:50;;;;;;;44.13;20.92;;;12.00;99.90;;;;;;5071189;28;20020;-70
2023/02/23 12:55:27;;;;;;;45.83;20.73;;;12.00;99.90;;;;;;5070407;28;20047;-70
2023/02/23 12:58:12;;;;;;;45.22;20.83;;;11.90;99.90;;;;;;5070648;28;20114;-71
2023/02/23 13:00:53;;;;;;;44.47;21.27;;;11.70;99.90;;;;;;5070499;28;20585;-71
2023/02/23 13:03:43;;;;;;;41.28;19.70;;;11.70;99.90;;;;;;5070537;28;20058;-70
2023/02/23 13:06:17;;;;;;;46.35;20.00;;;11.70;99.90;;;;;;5070365;28;20047;-71
2023/02/23 13:09:07;;;;;;;48.00;21.58;;;11.50;99.90;;;;;;5070367;28;20029;-70
2023/02/23 13:11:46;;;;;;;48.80;20.83;;;11.50;99.90;;;;;;5070426;28;20025;-71
2023/02/23 13:14:16;;;;;;;54.28;22.50;;;11.50;99.90;;;;;;5070448;28;20021;-70
2023/02/23 13:16:58;;;;;;;53.13;22.05;;;11.40;99.90;;;;;;5073422;28;20355;-70
2023/02/23 13:19:41;;;;;;;49.80;22.08;;;11.50;99.90;;;;;;5074415;28;20048;-71
2023/02/23 13:22:38;;;;;;;47.25;21.08;;;11.40;99.90;;;;;;5072845;28;20471;-70
2023/02/23 13:25:32;;;;;;;48.40;20.50;;;11.50;99.90;;;;;;5072932;28;20056;-71
2023/02/23 13:28:00;;;;;;;45.53;21.58;;;11.60;99.90;;;;;;5073898;28;20150;-71
2023/02/23 13:30:31;;;;;;;50.95;21.73;;;11.60;99.90;;;;;;5073737;28;20037;-70
2023/02/23 13:33:01;;;;;;;45.80;20.45;;;11.50;99.90;;;;;;5073864;28;20070;-72
2023/02/23 13:35:34;;;;;;;45.45;20.52;;;11.50;99.90;;;;;;5074061;28;20063;-71
2023/02/23 13:38:25;;;;;;;46.60;21.88;;;11.50;99.90;;;;;;5072720;28;20029;-71
2023/02/23 13:41:02;;;;;;;50.42;22.05;;;11.50;99.90;;;;;;5074219;28;20032;-71
2023/02/23 13:43:36;;;;;;;50.53;21.58;;;11.70;99.90;;;;;;5073889;28;20520;-71
2023/02/23 13:46:29;;;;;;;46.00;22.05;;;11.60;99.90;;;;;;5072111;28;20406;-71
2023/02/23 13:49:03;;;;;;;55.03;22.95;;;11.60;99.90;;;;;;5074182;28;20028;-71
2023/02/23 13:51:51;;;;;;;50.83;21.90;;;11.60;99.90;;;;;;5072908;28;20032;-71
2023/02/23 13:54:18;;;;;;;45.47;21.13;;;11.60;99.90;;;;;;5074912;28;20040;-70
2023/02/23 13:56:47;;;;;;;43.72;20.10;;;11.50;99.90;;;;;;5073659;28;20112;-70
2023/02/23 13:59:28;;;;;;;48.92;20.58;;;11.40;99.90;;;;;;5073491;28;20016;-70
2023/02/23 14:01:55;;;;;;;43.33;20.35;;;11.40;99.90;;;;;;5073611;28;20033;-72
2023/02/23 14:04:22;;;;;;;46.50;20.58;;;11.50;99.90;;;;;;5073986;28;20040;-71
2023/02/23 14:07:01;;;;;;;48.72;19.60;;;11.40;99.90;;;;;;5073514;28;20042;-71
2023/02/23 14:09:34;;;;;;;50.97;20.27;;;11.50;99.90;;;;;;5072407;28;20021;-71
2023/02/23 14:12:15;;;;;;;49.13;19.77;;;11.60;99.90;;;;;;5073581;28;20036;-69